sensor_id;sensor_type;location;lat;lon;timestamp;P1;durP1;ratioP1;P2;durP2;ratioP2
27746;SDS011;15138;51.012;4.692;2023-02-03T00:00:11;13.02;;;3.45;;
27746;SDS011;15138;51.012;4.692;2023-02-03T00:02:39;10.57;;;2.97;;
27746;SDS011;15138;51.012;4.692;2023-02-03T00:05:08;15.63;;;4.03;;
27746;SDS011;15138;51.012;4.692;2023-02-03T00:07:36;15.77;;;3.38;;
27746;SDS011;15138;51.012;4.692;2023-02-03T00:10:07;12.27;;;3.08;;
27746;SDS011;15138;51.012;4.692;2023-02-03T00:12:36;10.00;;;2.85;;
27746;SDS011;15138;51.012;4.692;2023-02-03T00:15:05;14.93;;;3.92;;
27746;SDS011;15138;51.012;4.692;2023-02-03T00:17:34;12.82;;;3.53;;
27746;SDS011;15138;51.012;4.692;2023-02-03T00:20:03;12.50;;;3.00;;
27746;SDS011;15138;51.012;4.692;2023-02-03T00:22:32;15.82;;;3.40;;
27746;SDS011;15138;51.012;4.692;2023-02-03T00:25:00;18.17;;;4.38;;
27746;SDS011;15138;51.012;4.692;2023-02-03T00:27:30;14.73;;;3.63;;
27746;SDS011;15138;51.012;4.692;2023-02-03T00:29:59;11.93;;;3.75;;
27746;SDS011;15138;51.012;4.692;2023-02-03T00:32:27;6.28;;;3.08;;
27746;SDS011;15138;51.012;4.692;2023-02-03T00:34:56;7.03;;;2.13;;
27746;SDS011;15138;51.012;4.692;2023-02-03T00:37:24;16.70;;;4.28;;
27746;SDS011;15138;51.012;4.692;2023-02-03T00:39:52;14.90;;;3.33;;
27746;SDS011;15138;51.012;4.692;2023-02-03T00:42:21;15.05;;;3.67;;
27746;SDS011;15138;51.012;4.692;2023-02-03T00:44:50;14.77;;;3.97;;
27746;SDS011;15138;51.012;4.692;2023-02-03T00:47:18;12.50;;;3.10;;
27746;SDS011;15138;51.012;4.692;2023-02-03T00:49:46;16.83;;;4.05;;
27746;SDS011;15138;51.012;4.692;2023-02-03T00:52:15;9.57;;;2.88;;
27746;SDS011;15138;51.012;4.692;2023-02-03T00:54:44;9.82;;;2.97;;
27746;SDS011;15138;51.012;4.692;2023-02-03T00:57:12;18.05;;;3.90;;
27746;SDS011;15138;51.012;4.692;2023-02-03T00:59:40;15.98;;;3.40;;
27746;SDS011;15138;51.012;4.692;2023-02-03T01:02:10;17.75;;;3.83;;
27746;SDS011;15138;51.012;4.692;2023-02-03T01:04:38;19.55;;;3.67;;
27746;SDS011;15138;51.012;4.692;2023-02-03T01:07:06;13.35;;;2.55;;
27746;SDS011;15138;51.012;4.692;2023-02-03T01:09:35;15.05;;;2.67;;
27746;SDS011;15138;51.012;4.692;2023-02-03T01:12:05;10.68;;;2.58;;
27746;SDS011;15138;51.012;4.692;2023-02-03T01:14:33;12.77;;;3.13;;
27746;SDS011;15138;51.012;4.692;2023-02-03T01:17:02;12.32;;;2.95;;
27746;SDS011;15138;51.012;4.692;2023-02-03T01:19:32;16.63;;;2.55;;
27746;SDS011;15138;51.012;4.692;2023-02-03T01:22:01;12.80;;;2.92;;
27746;SDS011;15138;51.012;4.692;2023-02-03T01:24:29;16.92;;;3.53;;
27746;SDS011;15138;51.012;4.692;2023-02-03T01:26:58;18.23;;;3.28;;
27746;SDS011;15138;51.012;4.692;2023-02-03T01:29:26;9.75;;;2.38;;
27746;SDS011;15138;51.012;4.692;2023-02-03T01:31:54;11.32;;;2.88;;
27746;SDS011;15138;51.012;4.692;2023-02-03T01:34:23;14.63;;;2.97;;
27746;SDS011;15138;51.012;4.692;2023-02-03T01:36:52;15.50;;;3.40;;
27746;SDS011;15138;51.012;4.692;2023-02-03T01:39:20;15.43;;;2.63;;
27746;SDS011;15138;51.012;4.692;2023-02-03T01:41:49;13.45;;;2.50;;
27746;SDS011;15138;51.012;4.692;2023-02-03T01:47:10;14.13;;;2.80;;
27746;SDS011;15138;51.012;4.692;2023-02-03T01:49:44;14.57;;;3.05;;
27746;SDS011;15138;51.012;4.692;2023-02-03T01:52:17;5.93;;;1.70;;
27746;SDS011;15138;51.012;4.692;2023-02-03T01:54:46;11.05;;;2.33;;
27746;SDS011;15138;51.012;4.692;2023-02-03T01:57:17;15.48;;;2.80;;
27746;SDS011;15138;51.012;4.692;2023-02-03T01:59:48;15.13;;;3.10;;
27746;SDS011;15138;51.012;4.692;2023-02-03T02:02:18;13.95;;;2.25;;
27746;SDS011;15138;51.012;4.692;2023-02-03T02:04:49;2.90;;;1.13;;
27746;SDS011;15138;51.012;4.692;2023-02-03T02:07:25;17.88;;;2.58;;
27746;SDS011;15138;51.012;4.692;2023-02-03T02:09:54;10.82;;;2.30;;
27746;SDS011;15138;51.012;4.692;2023-02-03T02:12:23;10.90;;;2.17;;
27746;SDS011;15138;51.012;4.692;2023-02-03T02:14:52;11.45;;;2.13;;
27746;SDS011;15138;51.012;4.692;2023-02-03T02:17:28;10.57;;;2.75;;
27746;SDS011;15138;51.012;4.692;2023-02-03T02:35:19;13.90;;;3.40;;
27746;SDS011;15138;51.012;4.692;2023-02-03T02:37:58;12.63;;;1.95;;
27746;SDS011;15138;51.012;4.692;2023-02-03T02:40:31;13.75;;;2.03;;
27746;SDS011;15138;51.012;4.692;2023-02-03T02:43:05;13.90;;;2.40;;
27746;SDS011;15138;51.012;4.692;2023-02-03T02:45:40;14.43;;;2.10;;
27746;SDS011;15138;51.012;4.692;2023-02-03T02:48:16;20.50;;;2.78;;
27746;SDS011;15138;51.012;4.692;2023-02-03T02:50:51;8.00;;;1.80;;
27746;SDS011;15138;51.012;4.692;2023-02-03T02:53:23;9.75;;;1.80;;
27746;SDS011;15138;51.012;4.692;2023-02-03T02:55:53;9.30;;;2.10;;
27746;SDS011;15138;51.012;4.692;2023-02-03T02:58:23;16.08;;;2.10;;
27746;SDS011;15138;51.012;4.692;2023-02-03T03:00:54;13.52;;;2.53;;
27746;SDS011;15138;51.012;4.692;2023-02-03T03:03:24;12.48;;;2.28;;
27746;SDS011;15138;51.012;4.692;2023-02-03T03:05:52;8.50;;;1.95;;
27746;SDS011;15138;51.012;4.692;2023-02-03T03:08:24;16.65;;;2.78;;
27746;SDS011;15138;51.012;4.692;2023-02-03T03:10:57;13.77;;;2.13;;
27746;SDS011;15138;51.012;4.692;2023-02-03T03:13:28;8.93;;;1.83;;
27746;SDS011;15138;51.012;4.692;2023-02-03T03:16:00;14.65;;;2.72;;
27746;SDS011;15138;51.012;4.692;2023-02-03T03:18:35;9.93;;;1.95;;
27746;SDS011;15138;51.012;4.692;2023-02-03T03:21:09;9.90;;;1.73;;
27746;SDS011;15138;51.012;4.692;2023-02-03T03:23:43;11.93;;;2.47;;
27746;SDS011;15138;51.012;4.692;2023-02-03T03:26:15;11.80;;;2.05;;
27746;SDS011;15138;51.012;4.692;2023-02-03T03:28:49;14.73;;;2.53;;
27746;SDS011;15138;51.012;4.692;2023-02-03T03:31:21;12.68;;;2.15;;
27746;SDS011;15138;51.012;4.692;2023-02-03T03:33:51;12.23;;;2.13;;
27746;SDS011;15138;51.012;4.692;2023-02-03T03:36:22;7.65;;;1.58;;
27746;SDS011;15138;51.012;4.692;2023-02-03T03:38:54;10.48;;;1.60;;
27746;SDS011;15138;51.012;4.692;2023-02-03T03:41:31;19.25;;;2.05;;
27746;SDS011;15138;51.012;4.692;2023-02-03T03:44:08;21.40;;;2.28;;
27746;SDS011;15138;51.012;4.692;2023-02-03T03:46:41;10.85;;;1.88;;
27746;SDS011;15138;51.012;4.692;2023-02-03T03:49:14;7.50;;;1.88;;
27746;SDS011;15138;51.012;4.692;2023-02-03T03:51:46;8.55;;;1.92;;
27746;SDS011;15138;51.012;4.692;2023-02-03T03:54:17;13.90;;;2.50;;
27746;SDS011;15138;51.012;4.692;2023-02-03T03:56:50;13.38;;;2.15;;
27746;SDS011;15138;51.012;4.692;2023-02-03T03:59:23;7.43;;;1.60;;
27746;SDS011;15138;51.012;4.692;2023-02-03T04:01:56;10.32;;;1.48;;
27746;SDS011;15138;51.012;4.692;2023-02-03T04:04:33;13.37;;;1.83;;
27746;SDS011;15138;51.012;4.692;2023-02-03T04:07:04;20.05;;;2.42;;
27746;SDS011;15138;51.012;4.692;2023-02-03T04:09:32;10.25;;;2.10;;
27746;SDS011;15138;51.012;4.692;2023-02-03T04:12:02;12.82;;;2.13;;
27746;SDS011;15138;51.012;4.692;2023-02-03T04:14:32;8.18;;;1.75;;
27746;SDS011;15138;51.012;4.692;2023-02-03T04:17:04;11.63;;;2.45;;
27746;SDS011;15138;51.012;4.692;2023-02-03T04:19:33;13.77;;;2.05;;
27746;SDS011;15138;51.012;4.692;2023-02-03T04:22:02;20.77;;;2.28;;
27746;SDS011;15138;51.012;4.692;2023-02-03T04:24:30;10.02;;;2.22;;
27746;SDS011;15138;51.012;4.692;2023-02-03T04:26:58;13.68;;;1.95;;
27746;SDS011;15138;51.012;4.692;2023-02-03T04:29:30;16.15;;;2.17;;
27746;SDS011;15138;51.012;4.692;2023-02-03T04:31:58;9.90;;;2.25;;
27746;SDS011;15138;51.012;4.692;2023-02-03T04:34:27;7.20;;;1.73;;
27746;SDS011;15138;51.012;4.692;2023-02-03T04:36:56;11.68;;;2.15;;
27746;SDS011;15138;51.012;4.692;2023-02-03T04:39:25;13.02;;;2.15;;
27746;SDS011;15138;51.012;4.692;2023-02-03T04:41:53;8.52;;;1.63;;
27746;SDS011;15138;51.012;4.692;2023-02-03T04:44:21;11.48;;;2.00;;
27746;SDS011;15138;51.012;4.692;2023-02-03T04:46:50;9.77;;;1.52;;
27746;SDS011;15138;51.012;4.692;2023-02-03T04:49:18;16.02;;;2.20;;
27746;SDS011;15138;51.012;4.692;2023-02-03T04:51:47;8.10;;;1.80;;
27746;SDS011;15138;51.012;4.692;2023-02-03T04:54:17;9.13;;;2.05;;
27746;SDS011;15138;51.012;4.692;2023-02-03T04:56:45;12.32;;;2.75;;
27746;SDS011;15138;51.012;4.692;2023-02-03T04:59:13;11.57;;;1.92;;
27746;SDS011;15138;51.012;4.692;2023-02-03T05:01:41;7.50;;;1.65;;
27746;SDS011;15138;51.012;4.692;2023-02-03T05:04:09;8.80;;;1.50;;
27746;SDS011;15138;51.012;4.692;2023-02-03T05:06:38;10.13;;;1.80;;
27746;SDS011;15138;51.012;4.692;2023-02-03T05:09:06;10.95;;;2.45;;
27746;SDS011;15138;51.012;4.692;2023-02-03T05:11:35;8.13;;;1.83;;
27746;SDS011;15138;51.012;4.692;2023-02-03T05:14:04;9.60;;;1.70;;
27746;SDS011;15138;51.012;4.692;2023-02-03T05:16:32;11.35;;;1.77;;
27746;SDS011;15138;51.012;4.692;2023-02-03T05:19:01;10.45;;;2.00;;
27746;SDS011;15138;51.012;4.692;2023-02-03T05:21:29;10.23;;;1.42;;
27746;SDS011;15138;51.012;4.692;2023-02-03T05:23:57;5.93;;;1.60;;
27746;SDS011;15138;51.012;4.692;2023-02-03T05:26:28;12.65;;;1.90;;
27746;SDS011;15138;51.012;4.692;2023-02-03T05:28:58;9.52;;;1.58;;
27746;SDS011;15138;51.012;4.692;2023-02-03T05:31:26;10.95;;;1.83;;
27746;SDS011;15138;51.012;4.692;2023-02-03T05:33:55;12.85;;;1.70;;
27746;SDS011;15138;51.012;4.692;2023-02-03T05:36:23;5.05;;;1.23;;
27746;SDS011;15138;51.012;4.692;2023-02-03T05:38:52;7.32;;;1.40;;
27746;SDS011;15138;51.012;4.692;2023-02-03T05:41:20;3.80;;;1.17;;
27746;SDS011;15138;51.012;4.692;2023-02-03T05:44:07;9.60;;;1.50;;
27746;SDS011;15138;51.012;4.692;2023-02-03T05:46:35;9.07;;;2.08;;
27746;SDS011;15138;51.012;4.692;2023-02-03T05:49:04;1.65;;;0.73;;
27746;SDS011;15138;51.012;4.692;2023-02-03T05:51:32;6.22;;;1.27;;
27746;SDS011;15138;51.012;4.692;2023-02-03T05:54:00;8.77;;;1.73;;
27746;SDS011;15138;51.012;4.692;2023-02-03T05:56:28;8.80;;;1.70;;
27746;SDS011;15138;51.012;4.692;2023-02-03T05:58:57;6.90;;;1.33;;
27746;SDS011;15138;51.012;4.692;2023-02-03T06:01:26;6.22;;;0.90;;
27746;SDS011;15138;51.012;4.692;2023-02-03T06:03:55;11.27;;;1.73;;
27746;SDS011;15138;51.012;4.692;2023-02-03T06:06:23;4.80;;;1.20;;
27746;SDS011;15138;51.012;4.692;2023-02-03T06:08:52;10.85;;;1.65;;
27746;SDS011;15138;51.012;4.692;2023-02-03T06:11:22;6.68;;;1.60;;
27746;SDS011;15138;51.012;4.692;2023-02-03T06:13:50;7.57;;;1.80;;
27746;SDS011;15138;51.012;4.692;2023-02-03T06:16:19;5.30;;;1.27;;
27746;SDS011;15138;51.012;4.692;2023-02-03T06:18:49;8.90;;;1.40;;
27746;SDS011;15138;51.012;4.692;2023-02-03T06:21:17;7.82;;;1.63;;
27746;SDS011;15138;51.012;4.692;2023-02-03T06:23:46;7.68;;;1.55;;
27746;SDS011;15138;51.012;4.692;2023-02-03T06:26:14;8.15;;;1.60;;
27746;SDS011;15138;51.012;4.692;2023-02-03T06:28:43;9.63;;;1.35;;
27746;SDS011;15138;51.012;4.692;2023-02-03T06:31:11;8.05;;;1.80;;
27746;SDS011;15138;51.012;4.692;2023-02-03T06:33:39;13.65;;;1.52;;
27746;SDS011;15138;51.012;4.692;2023-02-03T06:36:09;5.57;;;1.38;;
27746;SDS011;15138;51.012;4.692;2023-02-03T06:38:37;11.13;;;1.60;;
27746;SDS011;15138;51.012;4.692;2023-02-03T06:41:06;6.13;;;1.25;;
27746;SDS011;15138;51.012;4.692;2023-02-03T06:43:34;7.53;;;1.40;;
27746;SDS011;15138;51.012;4.692;2023-02-03T06:46:02;7.18;;;1.30;;
27746;SDS011;15138;51.012;4.692;2023-02-03T06:48:31;7.07;;;1.23;;
27746;SDS011;15138;51.012;4.692;2023-02-03T06:50:59;8.48;;;1.73;;
27746;SDS011;15138;51.012;4.692;2023-02-03T06:53:29;9.82;;;1.60;;
27746;SDS011;15138;51.012;4.692;2023-02-03T06:55:57;6.10;;;1.10;;
27746;SDS011;15138;51.012;4.692;2023-02-03T06:58:27;9.20;;;1.23;;
27746;SDS011;15138;51.012;4.692;2023-02-03T07:00:55;8.68;;;1.40;;
27746;SDS011;15138;51.012;4.692;2023-02-03T07:03:24;9.95;;;1.20;;
27746;SDS011;15138;51.012;4.692;2023-02-03T07:05:52;4.78;;;1.20;;
27746;SDS011;15138;51.012;4.692;2023-02-03T07:08:21;7.30;;;1.25;;
27746;SDS011;15138;51.012;4.692;2023-02-03T07:10:53;5.75;;;1.23;;
27746;SDS011;15138;51.012;4.692;2023-02-03T07:13:21;7.57;;;1.55;;
27746;SDS011;15138;51.012;4.692;2023-02-03T07:15:50;4.55;;;1.42;;
27746;SDS011;15138;51.012;4.692;2023-02-03T07:18:19;10.73;;;1.83;;
27746;SDS011;15138;51.012;4.692;2023-02-03T07:21:09;8.07;;;1.60;;
27746;SDS011;15138;51.012;4.692;2023-02-03T07:23:38;4.55;;;1.13;;
27746;SDS011;15138;51.012;4.692;2023-02-03T07:26:09;6.45;;;1.35;;
27746;SDS011;15138;51.012;4.692;2023-02-03T07:28:37;4.30;;;1.08;;
27746;SDS011;15138;51.012;4.692;2023-02-03T07:31:05;5.57;;;1.30;;
27746;SDS011;15138;51.012;4.692;2023-02-03T07:33:35;6.90;;;1.27;;
27746;SDS011;15138;51.012;4.692;2023-02-03T07:36:05;11.85;;;1.67;;
27746;SDS011;15138;51.012;4.692;2023-02-03T07:38:34;3.05;;;1.13;;
27746;SDS011;15138;51.012;4.692;2023-02-03T07:41:03;7.55;;;1.45;;
27746;SDS011;15138;51.012;4.692;2023-02-03T07:43:33;8.02;;;1.48;;
27746;SDS011;15138;51.012;4.692;2023-02-03T07:46:01;5.18;;;1.45;;
27746;SDS011;15138;51.012;4.692;2023-02-03T07:48:30;5.85;;;1.00;;
27746;SDS011;15138;51.012;4.692;2023-02-03T07:50:58;10.57;;;1.60;;
27746;SDS011;15138;51.012;4.692;2023-02-03T07:53:26;7.40;;;1.38;;
27746;SDS011;15138;51.012;4.692;2023-02-03T07:55:58;6.80;;;1.77;;
27746;SDS011;15138;51.012;4.692;2023-02-03T07:58:27;9.00;;;1.27;;
27746;SDS011;15138;51.012;4.692;2023-02-03T08:00:57;3.90;;;1.10;;
27746;SDS011;15138;51.012;4.692;2023-02-03T08:03:25;5.25;;;1.30;;
27746;SDS011;15138;51.012;4.692;2023-02-03T08:05:54;8.88;;;2.25;;
27746;SDS011;15138;51.012;4.692;2023-02-03T08:08:22;3.17;;;0.73;;
27746;SDS011;15138;51.012;4.692;2023-02-03T08:10:50;6.20;;;1.80;;
27746;SDS011;15138;51.012;4.692;2023-02-03T08:13:21;3.35;;;1.20;;
27746;SDS011;15138;51.012;4.692;2023-02-03T08:15:49;7.93;;;2.42;;
27746;SDS011;15138;51.012;4.692;2023-02-03T08:18:19;9.32;;;2.22;;
27746;SDS011;15138;51.012;4.692;2023-02-03T08:20:48;8.45;;;1.55;;
27746;SDS011;15138;51.012;4.692;2023-02-03T08:23:16;12.50;;;1.95;;
27746;SDS011;15138;51.012;4.692;2023-02-03T08:25:48;6.25;;;1.65;;
27746;SDS011;15138;51.012;4.692;2023-02-03T08:28:17;8.32;;;0.93;;
27746;SDS011;15138;51.012;4.692;2023-02-03T08:30:46;7.85;;;1.67;;
27746;SDS011;15138;51.012;4.692;2023-02-03T08:33:14;8.35;;;1.50;;
27746;SDS011;15138;51.012;4.692;2023-02-03T08:35:45;9.70;;;1.52;;
27746;SDS011;15138;51.012;4.692;2023-02-03T08:38:15;8.40;;;1.77;;
27746;SDS011;15138;51.012;4.692;2023-02-03T08:40:43;5.72;;;1.70;;
27746;SDS011;15138;51.012;4.692;2023-02-03T08:43:12;8.35;;;1.80;;
27746;SDS011;15138;51.012;4.692;2023-02-03T08:45:40;7.25;;;1.80;;
27746;SDS011;15138;51.012;4.692;2023-02-03T08:48:08;6.05;;;1.35;;
27746;SDS011;15138;51.012;4.692;2023-02-03T08:50:36;12.88;;;1.80;;
27746;SDS011;15138;51.012;4.692;2023-02-03T08:53:09;9.40;;;1.70;;
27746;SDS011;15138;51.012;4.692;2023-02-03T08:55:38;5.57;;;0.93;;
27746;SDS011;15138;51.012;4.692;2023-02-03T08:58:06;7.43;;;2.13;;
27746;SDS011;15138;51.012;4.692;2023-02-03T09:00:34;10.30;;;1.55;;
27746;SDS011;15138;51.012;4.692;2023-02-03T09:03:03;3.75;;;1.17;;
27746;SDS011;15138;51.012;4.692;2023-02-03T09:05:31;9.35;;;1.50;;
27746;SDS011;15138;51.012;4.692;2023-02-03T09:08:00;9.32;;;2.33;;
27746;SDS011;15138;51.012;4.692;2023-02-03T09:10:30;8.02;;;1.70;;
27746;SDS011;15138;51.012;4.692;2023-02-03T09:12:58;4.55;;;1.38;;
27746;SDS011;15138;51.012;4.692;2023-02-03T09:15:26;2.10;;;0.98;;
27746;SDS011;15138;51.012;4.692;2023-02-03T09:17:54;4.70;;;1.33;;
27746;SDS011;15138;51.012;4.692;2023-02-03T09:20:23;7.72;;;1.73;;
27746;SDS011;15138;51.012;4.692;2023-02-03T09:22:52;2.83;;;1.10;;
27746;SDS011;15138;51.012;4.692;2023-02-03T09:25:20;5.30;;;2.15;;
27746;SDS011;15138;51.012;4.692;2023-02-03T09:27:50;7.13;;;2.50;;
27746;SDS011;15138;51.012;4.692;2023-02-03T09:30:19;3.65;;;1.17;;
27746;SDS011;15138;51.012;4.692;2023-02-03T09:32:51;5.00;;;1.88;;
27746;SDS011;15138;51.012;4.692;2023-02-03T09:35:21;5.30;;;1.65;;
27746;SDS011;15138;51.012;4.692;2023-02-03T09:37:54;7.50;;;2.13;;
27746;SDS011;15138;51.012;4.692;2023-02-03T09:40:25;12.90;;;2.00;;
27746;SDS011;15138;51.012;4.692;2023-02-03T09:43:02;9.43;;;1.98;;
27746;SDS011;15138;51.012;4.692;2023-02-03T09:45:33;7.10;;;1.50;;
27746;SDS011;15138;51.012;4.692;2023-02-03T09:48:03;10.07;;;1.42;;
27746;SDS011;15138;51.012;4.692;2023-02-03T09:50:34;10.52;;;2.72;;
27746;SDS011;15138;51.012;4.692;2023-02-03T09:53:05;6.30;;;2.05;;
27746;SDS011;15138;51.012;4.692;2023-02-03T09:55:37;6.68;;;2.10;;
27746;SDS011;15138;51.012;4.692;2023-02-03T09:58:09;10.20;;;2.20;;
27746;SDS011;15138;51.012;4.692;2023-02-03T10:00:40;10.85;;;2.35;;
27746;SDS011;15138;51.012;4.692;2023-02-03T10:03:13;5.55;;;2.50;;
27746;SDS011;15138;51.012;4.692;2023-02-03T10:05:59;9.05;;;2.20;;
27746;SDS011;15138;51.012;4.692;2023-02-03T10:08:35;7.00;;;2.20;;
27746;SDS011;15138;51.012;4.692;2023-02-03T10:11:11;8.20;;;3.15;;
27746;SDS011;15138;51.012;4.692;2023-02-03T10:13:49;12.95;;;2.95;;
27746;SDS011;15138;51.012;4.692;2023-02-03T10:16:27;14.75;;;3.00;;
27746;SDS011;15138;51.012;4.692;2023-02-03T10:18:57;8.25;;;2.38;;
27746;SDS011;15138;51.012;4.692;2023-02-03T10:21:31;9.13;;;2.78;;
27746;SDS011;15138;51.012;4.692;2023-02-03T10:24:03;8.60;;;2.40;;
27746;SDS011;15138;51.012;4.692;2023-02-03T10:26:33;10.75;;;2.50;;
27746;SDS011;15138;51.012;4.692;2023-02-03T10:29:03;12.75;;;3.03;;
27746;SDS011;15138;51.012;4.692;2023-02-03T10:31:34;6.88;;;1.92;;
27746;SDS011;15138;51.012;4.692;2023-02-03T10:34:07;7.43;;;2.20;;
27746;SDS011;15138;51.012;4.692;2023-02-03T10:36:40;4.25;;;1.25;;
27746;SDS011;15138;51.012;4.692;2023-02-03T10:39:15;5.82;;;2.03;;
27746;SDS011;15138;51.012;4.692;2023-02-03T10:41:45;7.65;;;2.25;;
27746;SDS011;15138;51.012;4.692;2023-02-03T10:44:15;5.72;;;1.80;;
27746;SDS011;15138;51.012;4.692;2023-02-03T10:46:43;11.23;;;2.95;;
27746;SDS011;15138;51.012;4.692;2023-02-03T10:49:12;11.43;;;3.00;;
27746;SDS011;15138;51.012;4.692;2023-02-03T10:51:43;7.47;;;2.33;;
27746;SDS011;15138;51.012;4.692;2023-02-03T10:54:26;6.95;;;2.13;;
27746;SDS011;15138;51.012;4.692;2023-02-03T10:56:57;15.00;;;3.28;;
27746;SDS011;15138;51.012;4.692;2023-02-03T10:59:30;11.05;;;2.17;;
27746;SDS011;15138;51.012;4.692;2023-02-03T11:01:59;8.43;;;2.60;;
27746;SDS011;15138;51.012;4.692;2023-02-03T11:04:33;9.90;;;1.80;;
27746;SDS011;15138;51.012;4.692;2023-02-03T11:07:03;12.35;;;3.00;;
27746;SDS011;15138;51.012;4.692;2023-02-03T11:09:33;8.95;;;3.22;;
27746;SDS011;15138;51.012;4.692;2023-02-03T11:12:12;12.98;;;3.85;;
27746;SDS011;15138;51.012;4.692;2023-02-03T11:14:43;8.75;;;3.20;;
27746;SDS011;15138;51.012;4.692;2023-02-03T11:17:14;7.72;;;2.83;;
27746;SDS011;15138;51.012;4.692;2023-02-03T11:19:44;10.15;;;3.47;;
27746;SDS011;15138;51.012;4.692;2023-02-03T11:22:13;9.73;;;3.78;;
27746;SDS011;15138;51.012;4.692;2023-02-03T11:24:54;7.20;;;3.00;;
27746;SDS011;15138;51.012;4.692;2023-02-03T11:27:22;7.63;;;2.55;;
27746;SDS011;15138;51.012;4.692;2023-02-03T11:30:05;13.77;;;4.00;;
27746;SDS011;15138;51.012;4.692;2023-02-03T11:32:34;14.35;;;3.67;;
27746;SDS011;15138;51.012;4.692;2023-02-03T11:35:11;9.05;;;3.47;;
27746;SDS011;15138;51.012;4.692;2023-02-03T11:37:43;11.60;;;3.15;;
27746;SDS011;15138;51.012;4.692;2023-02-03T11:43:01;8.82;;;2.78;;
27746;SDS011;15138;51.012;4.692;2023-02-03T11:45:36;10.88;;;3.47;;
27746;SDS011;15138;51.012;4.692;2023-02-03T11:48:14;7.25;;;2.90;;
27746;SDS011;15138;51.012;4.692;2023-02-03T11:50:48;6.43;;;2.45;;
27746;SDS011;15138;51.012;4.692;2023-02-03T11:53:25;13.15;;;3.60;;
27746;SDS011;15138;51.012;4.692;2023-02-03T11:56:02;13.70;;;3.20;;
27746;SDS011;15138;51.012;4.692;2023-02-03T12:01:52;8.55;;;2.80;;
27746;SDS011;15138;51.012;4.692;2023-02-03T12:07:38;13.95;;;3.42;;
27746;SDS011;15138;51.012;4.692;2023-02-03T12:10:20;13.48;;;3.53;;
27746;SDS011;15138;51.012;4.692;2023-02-03T12:13:00;9.30;;;2.90;;
27746;SDS011;15138;51.012;4.692;2023-02-03T12:15:48;13.18;;;3.10;;
27746;SDS011;15138;51.012;4.692;2023-02-03T12:18:32;9.95;;;3.20;;
27746;SDS011;15138;51.012;4.692;2023-02-03T12:21:17;10.23;;;2.78;;
27746;SDS011;15138;51.012;4.692;2023-02-03T12:24:09;12.55;;;2.70;;
27746;SDS011;15138;51.012;4.692;2023-02-03T12:26:51;20.85;;;2.08;;
27746;SDS011;15138;51.012;4.692;2023-02-03T12:29:27;4.82;;;2.13;;
27746;SDS011;15138;51.012;4.692;2023-02-03T12:32:01;5.95;;;2.45;;
27746;SDS011;15138;51.012;4.692;2023-02-03T12:34:37;6.00;;;2.30;;
27746;SDS011;15138;51.012;4.692;2023-02-03T12:37:07;9.90;;;2.97;;
27746;SDS011;15138;51.012;4.692;2023-02-03T12:39:37;9.70;;;3.20;;
27746;SDS011;15138;51.012;4.692;2023-02-03T12:42:13;10.13;;;2.85;;
27746;SDS011;15138;51.012;4.692;2023-02-03T12:44:46;10.68;;;2.58;;
27746;SDS011;15138;51.012;4.692;2023-02-03T12:47:21;8.43;;;2.83;;
27746;SDS011;15138;51.012;4.692;2023-02-03T12:49:57;10.50;;;3.00;;
27746;SDS011;15138;51.012;4.692;2023-02-03T12:52:30;7.38;;;2.60;;
27746;SDS011;15138;51.012;4.692;2023-02-03T12:55:07;6.43;;;1.88;;
27746;SDS011;15138;51.012;4.692;2023-02-03T12:57:43;7.57;;;2.60;;
27746;SDS011;15138;51.012;4.692;2023-02-03T13:00:19;8.65;;;2.50;;
27746;SDS011;15138;51.012;4.692;2023-02-03T13:05:49;6.03;;;2.13;;
27746;SDS011;15138;51.012;4.692;2023-02-03T13:08:22;7.72;;;2.58;;
27746;SDS011;15138;51.012;4.692;2023-02-03T13:10:54;8.05;;;2.38;;
27746;SDS011;15138;51.012;4.692;2023-02-03T13:13:28;10.00;;;2.35;;
27746;SDS011;15138;51.012;4.692;2023-02-03T13:15:59;7.80;;;2.90;;
27746;SDS011;15138;51.012;4.692;2023-02-03T13:18:30;6.70;;;1.30;;
27746;SDS011;15138;51.012;4.692;2023-02-03T13:21:01;6.38;;;1.80;;
27746;SDS011;15138;51.012;4.692;2023-02-03T13:23:29;7.72;;;1.80;;
27746;SDS011;15138;51.012;4.692;2023-02-03T13:26:08;6.82;;;1.63;;
27746;SDS011;15138;51.012;4.692;2023-02-03T13:28:51;5.82;;;1.80;;
27746;SDS011;15138;51.012;4.692;2023-02-03T13:31:37;9.13;;;2.33;;
27746;SDS011;15138;51.012;4.692;2023-02-03T13:34:19;3.10;;;1.38;;
27746;SDS011;15138;51.012;4.692;2023-02-03T13:37:20;8.00;;;2.42;;
27746;SDS011;15138;51.012;4.692;2023-02-03T13:40:18;10.30;;;1.95;;
27746;SDS011;15138;51.012;4.692;2023-02-03T13:42:56;9.00;;;2.15;;
27746;SDS011;15138;51.012;4.692;2023-02-03T13:45:28;9.93;;;2.75;;
27746;SDS011;15138;51.012;4.692;2023-02-03T13:48:00;8.60;;;2.00;;
27746;SDS011;15138;51.012;4.692;2023-02-03T13:50:36;13.48;;;2.55;;
27746;SDS011;15138;51.012;4.692;2023-02-03T13:53:12;2.70;;;1.15;;
27746;SDS011;15138;51.012;4.692;2023-02-03T13:55:44;3.58;;;1.48;;
27746;SDS011;15138;51.012;4.692;2023-02-03T13:58:21;7.72;;;2.00;;
27746;SDS011;15138;51.012;4.692;2023-02-03T14:00:58;5.95;;;1.80;;
27746;SDS011;15138;51.012;4.692;2023-02-03T14:03:43;8.38;;;1.85;;
27746;SDS011;15138;51.012;4.692;2023-02-03T14:12:56;3.05;;;1.27;;
27746;SDS011;15138;51.012;4.692;2023-02-03T14:15:29;9.95;;;1.88;;
27746;SDS011;15138;51.012;4.692;2023-02-03T14:21:09;8.60;;;2.50;;
27746;SDS011;15138;51.012;4.692;2023-02-03T14:23:42;10.02;;;2.20;;
27746;SDS011;15138;51.012;4.692;2023-02-03T14:26:16;6.35;;;1.80;;
27746;SDS011;15138;51.012;4.692;2023-02-03T14:28:53;7.32;;;1.85;;
27746;SDS011;15138;51.012;4.692;2023-02-03T14:31:21;5.90;;;2.30;;
27746;SDS011;15138;51.012;4.692;2023-02-03T14:36:50;5.63;;;1.90;;
27746;SDS011;15138;51.012;4.692;2023-02-03T14:48:43;8.30;;;2.05;;
27746;SDS011;15138;51.012;4.692;2023-02-03T14:51:23;6.18;;;1.40;;
27746;SDS011;15138;51.012;4.692;2023-02-03T14:54:17;7.68;;;2.90;;
27746;SDS011;15138;51.012;4.692;2023-02-03T14:57:00;6.45;;;2.10;;
27746;SDS011;15138;51.012;4.692;2023-02-03T14:59:46;10.65;;;2.13;;
27746;SDS011;15138;51.012;4.692;2023-02-03T15:02:19;4.07;;;1.27;;
27746;SDS011;15138;51.012;4.692;2023-02-03T15:04:48;5.50;;;1.98;;
27746;SDS011;15138;51.012;4.692;2023-02-03T15:07:34;7.75;;;1.80;;
27746;SDS011;15138;51.012;4.692;2023-02-03T15:10:10;7.60;;;2.13;;
27746;SDS011;15138;51.012;4.692;2023-02-03T15:12:43;5.10;;;1.33;;
27746;SDS011;15138;51.012;4.692;2023-02-03T15:15:13;3.95;;;1.58;;
27746;SDS011;15138;51.012;4.692;2023-02-03T15:17:47;9.45;;;2.38;;
27746;SDS011;15138;51.012;4.692;2023-02-03T15:20:23;4.22;;;1.65;;
27746;SDS011;15138;51.012;4.692;2023-02-03T15:23:16;8.15;;;2.42;;
27746;SDS011;15138;51.012;4.692;2023-02-03T15:25:48;6.95;;;2.42;;
27746;SDS011;15138;51.012;4.692;2023-02-03T15:28:21;10.43;;;2.28;;
27746;SDS011;15138;51.012;4.692;2023-02-03T15:30:52;8.75;;;1.40;;
27746;SDS011;15138;51.012;4.692;2023-02-03T15:33:26;11.07;;;1.50;;
27746;SDS011;15138;51.012;4.692;2023-02-03T15:35:58;7.70;;;1.50;;
27746;SDS011;15138;51.012;4.692;2023-02-03T15:38:32;9.07;;;2.17;;
27746;SDS011;15138;51.012;4.692;2023-02-03T15:41:05;4.33;;;2.03;;
27746;SDS011;15138;51.012;4.692;2023-02-03T15:43:35;9.88;;;3.05;;
27746;SDS011;15138;51.012;4.692;2023-02-03T15:46:09;5.32;;;1.90;;
27746;SDS011;15138;51.012;4.692;2023-02-03T15:48:46;3.60;;;1.98;;
27746;SDS011;15138;51.012;4.692;2023-02-03T15:51:18;8.38;;;2.50;;
27746;SDS011;15138;51.012;4.692;2023-02-03T15:53:51;10.43;;;2.00;;
27746;SDS011;15138;51.012;4.692;2023-02-03T15:56:24;6.93;;;1.60;;
27746;SDS011;15138;51.012;4.692;2023-02-03T15:59:03;4.55;;;1.55;;
27746;SDS011;15138;51.012;4.692;2023-02-03T16:01:32;6.32;;;1.75;;